Time;durP1;ratioP1;P1;durP2;ratioP2;P2;SDS_P1;SDS_P2;PMS_P1;PMS_P2;Temp;Humidity;BMP_temperature;BMP_pressure;BME280_temperature;BME280_humidity;BME280_pressure;Samples;Min_cycle;Max_cycle;Signal;HPM_P1;HPM_P2
2021/09/06 00:00:29;;;;;;;9.45;8.57;;;14.10;99.90;;;14.95;82.94;98442.22;5269564;28;20223;-59
2021/09/06 00:03:03;;;;;;;9.07;8.27;;;14.10;99.90;;;14.94;82.48;98450.75;5264786;28;20545;-58
2021/09/06 00:05:36;;;;;;;8.95;8.25;;;14.00;99.90;;;14.85;82.65;98444.34;5266167;28;20689;-57
2021/09/06 00:08:09;;;;;;;9.13;8.32;;;13.90;99.90;;;14.83;82.73;98443.38;5258172;28;20228;-59
2021/09/06 00:10:46;;;;;;;8.90;8.10;;;13.90;99.90;;;14.85;82.35;98446.91;5270704;28;20226;-57
2021/09/06 00:13:20;;;;;;;9.10;8.40;;;13.80;99.90;;;14.84;83.03;98445.13;5266875;28;20202;-58
2021/09/06 00:15:53;;;;;;;8.80;8.10;;;13.80;99.90;;;14.78;82.49;98447.41;5268578;28;20188;-59
2021/09/06 00:18:27;;;;;;;9.10;8.23;;;13.80;99.90;;;14.71;83.60;98442.78;5271046;28;20192;-59
2021/09/06 00:21:02;;;;;;;9.32;8.52;;;13.80;99.90;;;14.68;82.86;98447.78;5263801;28;20233;-59
2021/09/06 00:23:36;;;;;;;9.20;8.48;;;13.70;99.90;;;14.69;82.74;98444.38;5249467;28;20180;-56
2021/09/06 00:26:09;;;;;;;9.30;8.48;;;13.70;99.90;;;14.71;83.35;98453.06;5249692;28;20700;-57
2021/09/06 00:28:44;;;;;;;9.70;8.80;;;13.80;99.90;;;14.69;82.60;98448.66;5255174;28;20191;-57
2021/09/06 00:31:17;;;;;;;9.18;8.38;;;13.70;99.90;;;14.67;83.16;98452.81;5270709;28;20588;-58
2021/09/06 00:33:50;;;;;;;9.73;8.55;;;13.70;99.90;;;14.56;83.31;98447.13;5270285;28;20248;-59
2021/09/06 00:36:23;;;;;;;10.45;9.45;;;13.60;99.90;;;14.51;83.95;98453.72;5262468;28;20780;-57
2021/09/06 00:38:56;;;;;;;8.30;7.63;;;13.50;99.90;;;14.45;83.38;98454.28;5270182;28;20202;-59
2021/09/06 00:41:29;;;;;;;9.23;8.45;;;13.50;99.90;;;14.42;82.84;98454.09;5268910;28;20196;-57
2021/09/06 00:44:04;;;;;;;9.00;8.23;;;13.40;99.90;;;14.40;83.55;98456.59;5270071;28;20196;-58
2021/09/06 00:46:43;;;;;;;9.60;8.63;;;13.40;99.90;;;14.43;83.35;98453.31;5270063;28;20227;-57
2021/09/06 00:49:19;;;;;;;9.70;8.80;;;13.40;99.90;;;14.41;82.76;98457.50;5268016;28;20226;-58
2021/09/06 00:51:52;;;;;;;9.48;8.70;;;13.30;99.90;;;14.31;84.31;98450.13;5269394;28;20195;-59
2021/09/06 00:54:25;;;;;;;10.75;9.25;;;13.30;99.90;;;14.31;83.05;98450.13;5263705;28;20196;-58
2021/09/06 00:56:58;;;;;;;9.70;8.80;;;13.30;99.90;;;14.16;84.55;98450.19;5261258;28;20188;-56
2021/09/06 00:59:33;;;;;;;9.52;8.35;;;13.20;99.90;;;14.10;84.29;98455.88;5265102;28;20310;-57
2021/09/06 01:02:06;;;;;;;10.35;9.48;;;13.20;99.90;;;14.08;84.70;98446.31;5266358;28;20202;-58
2021/09/06 01:04:39;;;;;;;10.23;9.32;;;13.20;99.90;;;14.04;85.78;98454.69;5255463;28;20232;-58
2021/09/06 01:07:13;;;;;;;9.60;8.70;;;13.20;99.90;;;14.08;84.79;98446.31;5267204;28;20212;-56
2021/09/06 01:09:46;;;;;;;9.75;8.85;;;13.10;99.90;;;14.03;86.03;98448.66;5262690;28;20598;-56
2021/09/06 01:12:19;;;;;;;10.15;9.25;;;13.10;99.90;;;14.03;84.32;98455.50;5264338;28;20203;-57
2021/09/06 01:14:54;;;;;;;9.20;8.40;;;13.10;99.90;;;13.97;84.79;98451.78;5267256;28;20203;-58
2021/09/06 01:17:28;;;;;;;8.93;8.13;;;13.00;99.90;;;13.98;84.14;98455.25;5269952;28;20187;-55
2021/09/06 01:20:01;;;;;;;9.82;8.90;;;13.00;99.90;;;13.94;84.35;98459.34;5269584;28;20241;-56
2021/09/06 01:22:34;;;;;;;9.20;8.40;;;13.00;99.90;;;13.94;84.67;98464.47;5269432;28;20199;-58
2021/09/06 01:25:09;;;;;;;10.00;8.93;;;13.00;99.90;;;13.92;84.64;98460.06;5269563;28;20204;-57
2021/09/06 01:27:44;;;;;;;9.40;8.65;;;13.00;99.90;;;13.91;85.08;98460.88;5263930;28;20198;-57
2021/09/06 01:30:18;;;;;;;10.10;9.23;;;13.00;99.90;;;13.83;85.09;98455.31;5262680;28;20711;-55
2021/09/06 01:32:51;;;;;;;9.73;8.93;;;13.00;99.90;;;13.86;84.79;98464.88;5261395;28;20214;-55
2021/09/06 01:35:24;;;;;;;10.07;9.07;;;13.00;99.90;;;13.83;85.14;98460.44;5267443;28;20576;-59
2021/09/06 01:37:57;;;;;;;9.77;8.93;;;12.90;99.90;;;13.80;85.48;98465.44;5264970;28;20273;-54
2021/09/06 01:40:30;;;;;;;10.35;9.40;;;12.90;99.90;;;13.77;85.53;98465.25;5247971;28;20302;-55
2021/09/06 01:43:04;;;;;;;9.65;8.85;;;12.90;99.90;;;13.75;85.38;98466.84;5253095;28;20286;-58
2021/09/06 01:45:38;;;;;;;9.70;9.00;;;12.90;99.90;;;13.69;85.20;98461.38;5262178;28;20219;-58
2021/09/06 01:48:11;;;;;;;9.63;8.82;;;12.80;99.90;;;13.70;86.08;98460.56;5265068;28;20203;-54
2021/09/06 01:50:44;;;;;;;9.50;8.60;;;12.80;99.90;;;13.60;85.88;98460.88;5266081;28;20681;-58
2021/09/06 01:53:17;;;;;;;9.43;8.55;;;12.80;99.90;;;13.59;86.25;98461.66;5267975;28;20196;-58
2021/09/06 01:55:50;;;;;;;9.57;8.77;;;12.70;99.90;;;13.60;85.03;98466.03;5266898;28;20192;-55
2021/09/06 01:58:24;;;;;;;9.48;8.68;;;12.70;99.90;;;13.64;86.50;98463.69;5262263;28;20224;-58
2021/09/06 02:00:57;;;;;;;10.77;9.68;;;12.80;99.90;;;13.65;85.98;98464.56;5269456;28;20218;-60
2021/09/06 02:03:31;;;;;;;10.43;9.43;;;12.80;99.90;;;13.58;86.03;98465.94;5257319;28;20216;-60
2021/09/06 02:06:04;;;;;;;10.10;9.13;;;12.60;99.90;;;13.57;86.15;98471.00;5263675;28;20707;-60
2021/09/06 02:08:37;;;;;;;9.80;9.00;;;12.60;99.90;;;13.48;86.23;98464.56;5259855;28;20200;-60
2021/09/06 02:11:11;;;;;;;10.07;9.20;;;12.60;99.90;;;13.44;86.04;98470.28;5267574;28;20218;-59
2021/09/06 02:13:45;;;;;;;10.55;9.63;;;12.60;99.90;;;13.34;86.47;98468.03;5268406;28;20684;-60
2021/09/06 02:16:18;;;;;;;10.00;9.10;;;12.50;99.90;;;13.32;85.89;98467.06;5268779;28;20191;-59
2021/09/06 02:18:54;;;;;;;10.38;9.48;;;12.40;99.90;;;13.15;87.14;98466.06;5260674;28;20561;-59
2021/09/06 02:21:28;;;;;;;10.13;9.23;;;12.30;99.90;;;13.15;86.82;98468.63;5264079;28;20572;-60
2021/09/06 02:24:02;;;;;;;11.27;10.20;;;12.30;99.90;;;13.13;87.42;98461.66;5268105;28;20198;-58
2021/09/06 02:26:36;;;;;;;10.27;9.35;;;12.30;99.90;;;13.12;86.54;98465.03;5266879;28;20596;-60
2021/09/06 02:29:12;;;;;;;10.65;9.75;;;12.30;99.90;;;13.06;87.38;98469.00;5267947;28;20302;-60
2021/09/06 02:31:45;;;;;;;10.07;9.18;;;12.30;99.90;;;13.11;88.20;98468.41;5263217;28;20645;-60
2021/09/06 02:34:18;;;;;;;10.80;9.80;;;12.30;99.90;;;13.12;87.87;98470.16;5268134;28;20557;-60
2021/09/06 02:36:52;;;;;;;9.70;8.80;;;12.30;99.90;;;13.08;87.73;98469.09;5262557;28;20187;-60
2021/09/06 02:39:25;;;;;;;10.85;9.77;;;12.20;99.90;;;13.11;88.45;98465.84;5255922;28;20583;-59
2021/09/06 02:41:59;;;;;;;10.27;9.43;;;12.30;99.90;;;13.07;89.00;98467.31;5247165;28;20188;-60
2021/09/06 02:44:34;;;;;;;10.32;9.43;;;12.30;99.90;;;13.08;88.96;98471.66;5246924;28;20226;-60
2021/09/06 02:47:08;;;;;;;10.35;9.55;;;12.30;99.90;;;13.13;89.06;98471.91;5247154;28;20687;-60
2021/09/06 02:49:41;;;;;;;10.98;9.82;;;12.40;99.90;;;13.16;88.39;98469.50;5252323;28;20216;-59
2021/09/06 02:52:14;;;;;;;11.32;10.40;;;12.40;99.90;;;13.13;86.88;98477.03;5263033;28;20193;-60
2021/09/06 02:54:47;;;;;;;10.25;9.35;;;12.30;99.90;;;13.06;87.11;98484.41;5246719;28;20204;-60
2021/09/06 02:57:20;;;;;;;9.88;9.07;;;12.20;99.90;;;13.03;87.63;98476.53;5246672;28;20563;-59
2021/09/06 02:59:54;;;;;;;10.80;9.75;;;12.20;99.90;;;13.06;88.06;98476.69;5267442;28;20216;-60
2021/09/06 03:02:28;;;;;;;10.68;9.77;;;12.20;99.90;;;12.99;87.63;98476.25;5258299;28;20203;-60
2021/09/06 03:05:02;;;;;;;10.65;9.35;;;12.20;99.90;;;13.01;87.56;98474.66;5260078;28;20226;-60
2021/09/06 03:07:35;;;;;;;11.20;10.30;;;12.20;99.90;;;13.00;87.46;98476.34;5261809;28;20220;-58
2021/09/06 03:10:11;;;;;;;10.98;9.85;;;12.20;99.90;;;12.99;86.40;98479.72;5261280;28;20234;-59
2021/09/06 03:12:44;;;;;;;10.77;9.77;;;12.20;99.90;;;12.94;87.11;98470.88;5267788;28;20417;-60
2021/09/06 03:15:19;;;;;;;11.32;10.23;;;12.10;99.90;;;12.88;88.51;98475.66;5266589;28;20642;-59
2021/09/06 03:17:52;;;;;;;10.02;9.15;;;12.20;99.90;;;12.94;87.71;98470.88;5267611;28;20197;-60
2021/09/06 03:20:25;;;;;;;10.32;9.45;;;12.20;99.90;;;12.96;87.67;98470.94;5266571;28;20228;-60
2021/09/06 03:22:58;;;;;;;10.27;9.38;;;12.20;99.90;;;12.95;87.72;98471.75;5267292;28;20218;-60
2021/09/06 03:25:31;;;;;;;10.60;9.70;;;12.20;99.90;;;12.93;87.19;98469.09;5266277;28;20613;-60
2021/09/06 03:28:04;;;;;;;10.27;9.30;;;12.10;99.90;;;12.98;87.13;98477.06;5266135;28;20220;-60
2021/09/06 03:30:39;;;;;;;10.23;9.32;;;12.10;99.90;;;12.96;86.82;98474.41;5260463;28;20215;-59
2021/09/06 03:33:13;;;;;;;10.63;9.63;;;12.10;99.90;;;12.90;86.35;98471.47;5267492;28;20200;-60
2021/09/06 03:35:47;;;;;;;10.52;9.57;;;12.10;99.90;;;12.91;87.46;98470.69;5260168;28;20277;-60
2021/09/06 03:38:20;;;;;;;10.95;10.05;;;12.10;99.90;;;12.88;86.95;98470.53;5262324;28;20241;-60
2021/09/06 03:40:53;;;;;;;11.65;10.65;;;12.10;99.90;;;12.83;87.03;98466.81;5264186;28;20227;-59
2021/09/06 03:43:26;;;;;;;10.18;9.38;;;12.10;99.90;;;12.85;86.92;98473.78;5267591;28;20196;-60
2021/09/06 03:46:00;;;;;;;10.90;9.90;;;12.00;99.90;;;12.82;86.16;98465.91;5266926;28;20200;-60
2021/09/06 03:48:33;;;;;;;10.32;9.43;;;11.90;99.90;;;12.77;86.59;98467.34;5265379;28;20223;-59
2021/09/06 03:51:07;;;;;;;10.60;9.70;;;11.90;99.90;;;12.70;86.69;98470.31;5267189;28;20400;-60
2021/09/06 03:53:40;;;;;;;9.98;9.18;;;11.90;99.90;;;12.70;86.15;98475.44;5261836;28;20202;-58
2021/09/06 03:56:16;;;;;;;10.27;9.43;;;11.80;99.90;;;12.70;86.08;98474.56;5267321;28;20697;-59
2021/09/06 03:58:49;;;;;;;9.95;9.05;;;11.80;99.90;;;12.63;85.98;98470.78;5260807;28;20198;-59
2021/09/06 04:01:23;;;;;;;10.15;9.30;;;11.70;99.90;;;12.56;85.55;98472.09;5263537;28;20199;-59
2021/09/06 04:03:57;;;;;;;10.93;9.93;;;11.70;99.90;;;12.58;85.82;98478.19;5252911;28;20777;-60
2021/09/06 04:06:30;;;;;;;10.85;9.75;;;11.70;99.90;;;12.56;86.49;98471.19;5256449;28;20206;-59
2021/09/06 04:09:03;;;;;;;10.68;9.77;;;11.70;99.90;;;12.53;86.81;98469.34;5253584;28;20223;-60
2021/09/06 04:11:36;;;;;;;9.90;9.05;;;11.70;99.90;;;12.49;85.92;98475.06;5250091;28;20228;-64
2021/09/06 04:14:12;;;;;;;10.75;9.75;;;11.60;99.90;;;12.40;86.50;98474.53;5256762;28;20219;-64
2021/09/06 04:16:47;;;;;;;10.73;9.82;;;11.50;99.90;;;12.37;86.67;98480.34;5265271;28;20199;-64
2021/09/06 04:19:20;;;;;;;9.85;8.98;;;11.50;99.90;;;12.35;86.18;98486.19;5267071;28;20580;-58
2021/09/06 04:21:53;;;;;;;10.45;9.48;;;11.50;99.90;;;12.37;86.17;98487.19;5260607;28;20203;-59
2021/09/06 04:24:26;;;;;;;10.63;9.73;;;11.50;99.90;;;12.38;86.24;98488.94;5261739;28;20196;-58
2021/09/06 04:26:59;;;;;;;11.57;10.32;;;11.50;99.90;;;12.35;87.03;98493.88;5257731;28;20200;-59
2021/09/06 04:29:32;;;;;;;10.45;9.55;;;11.50;99.90;;;12.37;86.40;98493.19;5259140;28;20238;-59
2021/09/06 04:32:08;;;;;;;11.05;9.95;;;11.50;99.90;;;12.42;85.53;98493.47;5246494;28;20207;-59
2021/09/06 04:34:41;;;;;;;10.77;9.77;;;11.40;99.90;;;12.40;85.35;98500.16;5248513;28;20204;-58
2021/09/06 04:37:14;;;;;;;10.20;9.40;;;11.40;99.90;;;12.32;86.54;98504.81;5258409;28;20215;-58
2021/09/06 04:39:47;;;;;;;11.00;9.93;;;11.40;99.90;;;12.26;86.31;98506.16;5253669;28;20224;-59
2021/09/06 04:42:20;;;;;;;9.90;9.05;;;11.40;99.90;;;12.30;86.31;98508.09;5264863;28;20220;-58
2021/09/06 04:44:53;;;;;;;10.32;9.32;;;11.50;99.90;;;12.31;86.72;98509.88;5257497;28;20574;-58
2021/09/06 04:47:28;;;;;;;10.88;9.88;;;11.50;99.90;;;12.25;86.14;98505.25;5270200;28;20215;-59
2021/09/06 04:50:01;;;;;;;10.73;9.82;;;11.40;99.90;;;12.29;85.43;98514.00;5260085;28;20220;-59
2021/09/06 04:52:34;;;;;;;10.23;9.23;;;11.40;99.90;;;12.18;85.31;98518.47;5264297;28;20728;-59
2021/09/06 04:55:07;;;;;;;10.02;9.18;;;11.30;99.90;;;12.12;85.56;98513.88;5265072;28;20382;-59
2021/09/06 04:57:41;;;;;;;10.30;9.30;;;11.20;99.90;;;12.07;86.06;98525.50;5258375;28;20292;-59
2021/09/06 05:00:16;;;;;;;10.57;9.57;;;11.20;99.90;;;12.06;85.46;98523.75;5259985;28;20223;-59
2021/09/06 05:02:50;;;;;;;10.68;9.63;;;11.10;99.90;;;12.07;86.56;98520.38;5260062;28;20199;-57
2021/09/06 05:05:24;;;;;;;10.25;9.35;;;11.30;99.90;;;12.10;86.92;98525.72;5262936;28;20287;-59
2021/09/06 05:08:00;;;;;;;10.52;9.63;;;11.30;99.90;;;12.11;86.94;98522.34;5258796;28;20207;-55
2021/09/06 05:10:33;;;;;;;12.25;11.13;;;11.30;99.90;;;12.14;86.83;98527.66;5263138;28;20598;-59
2021/09/06 05:13:06;;;;;;;10.85;9.77;;;11.40;99.90;;;12.18;87.36;98528.72;5271366;28;20297;-58
2021/09/06 05:15:39;;;;;;;11.50;10.50;;;11.40;99.90;;;12.24;87.43;98533.34;5267699;28;20211;-60
2021/09/06 05:18:13;;;;;;;12.13;10.93;;;11.50;99.90;;;12.29;88.00;98534.53;5259493;28;20192;-59
2021/09/06 05:20:46;;;;;;;11.35;10.35;;;11.50;99.90;;;12.31;87.74;98535.50;5261860;28;20230;-60
2021/09/06 05:23:20;;;;;;;11.65;10.65;;;11.60;99.90;;;12.35;88.21;98537.47;5266108;28;20192;-58
2021/09/06 05:25:53;;;;;;;10.77;9.77;;;11.60;99.90;;;12.45;87.84;98544.00;5259960;28;20196;-59
2021/09/06 05:28:29;;;;;;;10.80;9.90;;;11.70;99.90;;;12.53;87.95;98536.03;5248952;28;20661;-60
2021/09/06 05:31:03;;;;;;;10.68;9.77;;;11.80;99.90;;;12.62;86.97;98538.25;5256792;28;20224;-61
2021/09/06 05:33:37;;;;;;;10.70;9.77;;;11.90;99.90;;;12.71;86.46;98543.03;5259669;28;20196;-60
2021/09/06 05:36:13;;;;;;;10.40;9.40;;;11.90;99.90;;;12.81;86.22;98542.78;5265913;28;20210;-59
2021/09/06 05:38:46;;;;;;;11.38;10.23;;;12.00;99.90;;;12.92;86.05;98544.31;5255953;28;20200;-59
2021/09/06 05:41:20;;;;;;;10.98;9.95;;;12.00;99.90;;;13.07;85.46;98547.75;5261094;28;20192;-59
2021/09/06 05:43:53;;;;;;;10.35;9.45;;;12.20;99.90;;;13.07;85.41;98547.75;5257767;28;20195;-59
2021/09/06 05:46:26;;;;;;;10.73;9.75;;;12.20;99.90;;;13.24;84.05;98558.13;5254399;28;20203;-64
2021/09/06 05:49:01;;;;;;;11.73;10.63;;;12.30;99.90;;;13.40;83.81;98558.25;5251560;28;20600;-63
2021/09/06 05:51:34;;;;;;;10.65;9.73;;;12.50;99.90;;;13.59;82.78;98559.28;5263831;28;20205;-62
2021/09/06 05:54:07;;;;;;;10.40;9.45;;;12.60;99.90;;;13.87;80.34;98562.59;5262420;28;20192;-63
2021/09/06 05:56:40;;;;;;;10.45;9.48;;;12.70;99.90;;;14.19;80.45;98556.66;5261541;28;20215;-63
2021/09/06 05:59:13;;;;;;;9.77;8.88;;;13.00;99.90;;;14.67;76.94;98554.06;5253383;28;20819;-64
2021/09/06 06:01:46;;;;;;;10.77;8.80;;;13.40;99.90;;;15.18;76.13;98552.38;5253861;28;20212;-62
2021/09/06 06:04:21;;;;;;;8.90;8.20;;;13.70;99.90;;;15.66;74.16;98555.59;5259891;28;20195;-64
2021/09/06 06:06:54;;;;;;;9.38;8.48;;;14.10;99.90;;;16.12;71.95;98556.94;5265726;28;20278;-64
2021/09/06 06:09:27;;;;;;;8.43;7.72;;;14.40;99.90;;;16.39;70.73;98557.31;5256045;28;20225;-63
2021/09/06 06:12:00;;;;;;;9.27;8.38;;;14.80;99.90;;;16.77;69.46;98568.47;5262186;28;20206;-65
2021/09/06 06:14:33;;;;;;;9.00;8.20;;;15.00;99.90;;;16.86;69.19;98561.16;5269543;28;20665;-63
2021/09/06 06:17:06;;;;;;;9.00;8.13;;;15.20;99.90;;;16.78;69.88;98560.81;5265649;28;20211;-64
2021/09/06 06:19:41;;;;;;;9.35;8.48;;;15.30;99.90;;;16.78;68.91;98567.69;5257296;28;20221;-64
2021/09/06 06:22:14;;;;;;;9.25;8.40;;;15.30;99.90;;;16.86;68.41;98561.16;5266002;28;20191;-64
2021/09/06 06:24:47;;;;;;;9.55;8.75;;;15.30;99.90;;;17.20;67.71;98560.03;5265412;28;20204;-64
2021/09/06 06:27:20;;;;;;;9.80;8.90;;;15.60;99.90;;;17.33;67.36;98559.72;5262347;28;20586;-63
2021/09/06 06:29:53;;;;;;;9.73;8.93;;;15.80;99.90;;;17.69;64.65;98564.63;5252947;28;20220;-63
2021/09/06 06:32:26;;;;;;;9.68;8.70;;;15.90;99.90;;;17.94;64.37;98567.41;5251842;28;20203;-64
2021/09/06 06:35:00;;;;;;;9.30;8.50;;;16.10;99.90;;;18.14;64.05;98559.53;5260651;28;20191;-64
2021/09/06 06:37:34;;;;;;;8.95;8.15;;;16.20;99.90;;;18.36;63.60;98561.22;5267087;28;20252;-63
2021/09/06 06:40:09;;;;;;;8.48;7.68;;;16.70;99.90;;;18.68;63.39;98565.91;5264008;28;20216;-63
2021/09/06 06:42:42;;;;;;;9.50;8.55;;;17.00;99.90;;;18.91;61.68;98560.69;5263697;28;20217;-63
2021/09/06 06:45:15;;;;;;;9.20;8.38;;;17.30;99.90;;;19.30;59.68;98561.19;5259424;28;20202;-64
2021/09/06 06:47:48;;;;;;;9.68;8.70;;;17.50;99.90;;;19.38;59.35;98568.34;5262576;28;20196;-63
2021/09/06 06:50:24;;;;;;;9.95;9.15;;;17.50;99.90;;;19.60;58.17;98568.22;5268206;28;20226;-63
2021/09/06 06:52:57;;;;;;;10.25;9.35;;;17.70;99.90;;;20.11;56.98;98562.94;5262308;28;20556;-64
2021/09/06 06:55:31;;;;;;;10.02;9.13;;;17.80;99.90;;;20.51;56.18;98565.84;5258291;28;20188;-64
2021/09/06 06:58:04;;;;;;;10.30;9.20;;;18.20;99.90;;;20.25;56.68;98568.56;5264573;28;20196;-63
2021/09/06 07:00:37;;;;;;;9.88;8.93;;;18.20;99.90;;;20.92;55.10;98564.47;5250991;28;20228;-64
2021/09/06 07:03:10;;;;;;;9.23;8.43;;;18.50;99.90;;;20.82;55.22;98562.44;5262494;28;20257;-63
2021/09/06 07:05:45;;;;;;;9.15;8.25;;;18.70;99.90;;;21.40;53.67;98566.63;5262063;28;20619;-63
2021/09/06 07:08:18;;;;;;;9.75;8.85;;;18.90;99.90;;;21.42;52.62;98569.28;5258778;28;20195;-59
2021/09/06 07:10:51;;;;;;;9.77;8.88;;;19.00;99.90;;;21.64;52.29;98573.31;5260034;28;20216;-60
2021/09/06 07:13:24;;;;;;;9.60;8.80;;;18.90;99.90;;;22.27;51.65;98566.16;5261687;28;20203;-60
2021/09/06 07:15:57;;;;;;;9.18;8.27;;;19.30;99.90;;;22.55;51.26;98565.84;5257542;28;20227;-59
2021/09/06 07:18:30;;;;;;;9.82;8.82;;;19.70;99.90;;;22.75;50.15;98563.66;5255693;28;20199;-58
2021/09/06 07:21:05;;;;;;;8.90;8.20;;;19.90;99.90;;;22.69;50.35;98567.91;5262121;28;20226;-60
2021/09/06 07:23:38;;;;;;;9.15;8.35;;;20.20;99.90;;;22.65;51.44;98563.47;5262209;28;20668;-60
2021/09/06 07:26:11;;;;;;;8.95;8.20;;;20.30;99.90;;;22.69;51.28;98564.41;5254885;28;20214;-60
2021/09/06 07:28:44;;;;;;;10.40;9.50;;;20.50;99.90;;;22.41;50.97;98558.63;5257453;28;20608;-59
2021/09/06 07:31:17;;;;;;;9.40;8.50;;;20.60;99.90;;;22.42;51.63;98565.59;5256989;28;20203;-60
2021/09/06 07:33:51;;;;;;;9.10;8.23;;;20.60;99.90;;;22.10;53.02;98577.00;5253451;28;20203;-59
2021/09/06 07:36:25;;;;;;;9.32;8.52;;;20.60;99.90;;;22.26;52.63;98568.69;5253117;28;20204;-60
2021/09/06 07:38:59;;;;;;;9.73;8.82;;;20.70;99.90;;;22.20;52.68;98566.84;5258820;28;20192;-59
2021/09/06 07:41:32;;;;;;;9.48;8.65;;;20.90;99.90;;;22.33;52.81;98562.81;5257046;28;20192;-60
2021/09/06 07:44:05;;;;;;;9.75;8.90;;;20.90;99.90;;;22.44;52.72;98569.13;5256964;28;20202;-60
2021/09/06 07:46:38;;;;;;;8.48;7.70;;;21.00;99.90;;;22.65;52.02;98573.91;5259205;28;20207;-59
2021/09/06 07:49:11;;;;;;;9.25;8.45;;;21.30;99.90;;;22.50;51.84;98573.59;5258222;28;20226;-60
2021/09/06 07:51:51;;;;;;;9.57;8.68;;;21.30;99.90;;;22.68;51.44;98573.06;5266351;28;20188;-60
2021/09/06 07:54:26;;;;;;;9.27;8.50;;;21.70;99.90;;;22.66;51.92;98580.88;5262163;28;20198;-61
2021/09/06 07:56:59;;;;;;;9.20;8.23;;;21.50;99.90;;;22.77;52.31;98583.69;5260970;28;20196;-60
2021/09/06 07:59:33;;;;;;;9.18;8.38;;;21.60;99.90;;;22.99;52.44;98573.72;5260961;28;20219;-59
2021/09/06 08:02:06;;;;;;;9.02;8.23;;;21.90;99.90;;;23.13;51.08;98577.47;5253580;28;20685;-60
2021/09/06 08:04:39;;;;;;;8.55;7.82;;;22.10;99.10;;;23.26;51.05;98574.22;5259486;28;20662;-60
2021/09/06 08:07:13;;;;;;;9.27;8.35;;;22.40;98.90;;;23.22;51.54;98577.66;5250848;28;20199;-60
2021/09/06 08:09:46;;;;;;;9.20;8.40;;;22.40;99.10;;;23.50;50.24;98578.16;5253941;28;20234;-61
2021/09/06 08:12:19;;;;;;;9.10;8.30;;;22.50;98.40;;;23.34;49.56;98580.47;5262898;28;20287;-60
2021/09/06 08:14:56;;;;;;;9.05;8.35;;;22.10;98.70;;;23.48;50.45;98580.72;5252781;28;20205;-61
2021/09/06 08:17:29;;;;;;;9.13;8.07;;;22.40;98.80;;;23.41;51.67;98589.31;5265155;28;20218;-61
2021/09/06 08:20:03;;;;;;;9.38;8.35;;;22.50;99.20;;;23.67;50.00;98587.13;5263764;28;20225;-60
2021/09/06 08:22:39;;;;;;;8.25;7.55;;;22.80;97.70;;;23.88;48.72;98596.19;5249794;28;20207;-61
2021/09/06 08:25:14;;;;;;;8.13;7.50;;;23.10;96.40;;;24.09;46.28;98586.06;5256300;28;20201;-61
2021/09/06 08:27:47;;;;;;;8.57;7.80;;;23.40;95.60;;;24.25;45.85;98593.28;5262939;28;20210;-61
2021/09/06 08:30:20;;;;;;;8.82;8.02;;;23.60;95.20;;;24.33;45.17;98600.38;5255022;28;20306;-59
2021/09/06 08:32:55;;;;;;;9.00;8.10;;;23.60;94.00;;;24.35;45.57;98601.25;5260314;28;20202;-61
2021/09/06 08:35:28;;;;;;;8.75;8.05;;;23.60;94.70;;;24.47;45.59;98606.72;5271874;28;20290;-61
2021/09/06 08:38:03;;;;;;;8.77;8.07;;;23.60;94.70;;;24.54;45.38;98605.91;5264571;28;20204;-59
2021/09/06 08:40:36;;;;;;;10.60;8.45;;;23.80;94.40;;;24.56;45.86;98605.94;5265885;28;20221;-61
2021/09/06 08:43:09;;;;;;;9.40;8.25;;;23.80;94.80;;;24.54;46.87;98608.53;5262802;28;20196;-59
2021/09/06 08:45:42;;;;;;;10.82;8.02;;;23.90;95.00;;;24.83;46.87;98608.03;5270152;28;20219;-60
2021/09/06 08:48:15;;;;;;;9.00;8.05;;;24.20;95.00;;;24.76;46.95;98616.66;5269831;28;20207;-60
2021/09/06 08:50:48;;;;;;;8.20;7.40;;;24.20;95.20;;;24.76;47.59;98614.06;5267205;28;20245;-61
2021/09/06 08:53:23;;;;;;;8.75;8.05;;;24.20;95.20;;;25.09;47.52;98619.66;5270431;28;20200;-60
2021/09/06 08:55:56;;;;;;;8.07;7.47;;;24.40;95.70;;;25.40;46.44;98620.03;5270293;28;20252;-61
2021/09/06 08:58:49;;;;;;;8.30;7.50;;;24.80;94.60;;;25.61;46.17;98628.13;5265474;28;20192;-61
2021/09/06 09:01:22;;;;;;;8.05;7.30;;;25.20;93.80;;;25.92;43.70;98623.16;5270066;28;20196;-60
2021/09/06 09:03:56;;;;;;;8.45;7.65;;;25.30;92.70;;;26.07;42.71;98617.19;5264135;28;20277;-61
2021/09/06 09:06:37;;;;;;;7.80;7.10;;;25.40;92.30;;;26.13;42.20;98606.75;5267994;28;20199;-61
2021/09/06 09:09:12;;;;;;;7.72;7.10;;;25.40;91.90;;;26.34;41.82;98607.75;5269510;28;20227;-61
2021/09/06 09:12:06;;;;;;;7.95;7.25;;;25.80;91.50;;;26.45;42.08;98608.69;5270046;28;20191;-61
2021/09/06 09:14:42;;;;;;;7.93;7.30;;;25.90;91.50;;;26.69;41.37;98610.59;5268634;28;20692;-59
2021/09/06 09:17:15;;;;;;;7.85;7.22;;;26.10;90.90;;;26.79;41.33;98607.16;5257263;28;20203;-60
2021/09/06 09:19:49;;;;;;;8.75;7.97;;;26.20;90.90;;;26.87;41.56;98615.94;5258750;28;20252;-61
2021/09/06 09:22:32;;;;;;;8.85;8.05;;;26.30;90.90;;;27.04;41.06;98612.47;5258115;28;20195;-61
2021/09/06 09:25:11;;;;;;;7.82;7.13;;;26.40;90.80;;;27.07;41.38;98601.97;5261555;28;20191;-61
2021/09/06 09:27:45;;;;;;;8.32;7.57;;;26.30;91.10;;;27.12;41.10;98603.75;5267081;28;20205;-61
2021/09/06 09:30:25;;;;;;;8.50;7.80;;;26.40;90.90;;;26.94;41.79;98601.94;5265440;28;20223;-60
2021/09/06 09:33:09;;;;;;;7.85;7.20;;;26.30;91.20;;;26.98;40.76;98605.47;5262913;28;20195;-61
2021/09/06 09:35:42;;;;;;;8.32;7.63;;;26.30;90.00;;;27.02;40.65;98598.50;5260396;28;20208;-61
2021/09/06 09:38:15;;;;;;;8.13;7.38;;;26.30;90.40;;;26.95;42.30;98605.44;5268155;28;20191;-61
2021/09/06 09:40:49;;;;;;;8.27;7.57;;;26.20;91.60;;;26.94;41.12;98604.56;5268704;28;20229;-61
2021/09/06 09:43:30;;;;;;;7.97;7.38;;;26.20;90.30;;;27.09;39.23;98600.25;5260744;28;20202;-62
2021/09/06 09:46:04;;;;;;;8.65;7.80;;;26.40;87.70;;;27.23;40.66;98601.19;5261359;28;20186;-61
2021/09/06 09:48:37;;;;;;;8.23;7.53;;;26.60;90.10;;;27.26;40.79;98600.31;5255351;28;20733;-61
2021/09/06 09:51:10;;;;;;;8.05;7.35;;;26.70;90.20;;;27.50;40.09;98597.75;5262875;28;20223;-62
2021/09/06 09:53:44;;;;;;;8.50;7.72;;;26.90;89.20;;;27.53;39.79;98608.25;5260387;28;20199;-60
2021/09/06 09:56:19;;;;;;;8.48;7.82;;;26.80;89.10;;;27.76;39.00;98603.03;5264474;28;20187;-62
2021/09/06 09:58:52;;;;;;;8.77;7.97;;;27.10;87.80;;;27.78;37.68;98596.00;5268556;28;20199;-61
2021/09/06 10:01:26;;;;;;;8.63;7.88;;;27.20;85.50;;;27.61;38.68;98601.28;5259079;28;20198;-60
2021/09/06 10:04:02;;;;;;;8.80;8.13;;;27.00;86.90;;;27.52;37.78;98603.00;5252610;28;20207;-62
2021/09/06 10:06:37;;;;;;;8.48;7.78;;;26.90;85.40;;;27.50;38.79;98599.47;5253556;28;20672;-62
2021/09/06 10:09:14;;;;;;;8.27;7.57;;;26.80;86.80;;;27.32;38.46;98595.97;5269156;28;20302;-61
2021/09/06 10:11:50;;;;;;;8.13;7.43;;;26.70;87.00;;;27.52;39.29;98597.75;5258233;28;20207;-62
2021/09/06 10:14:26;;;;;;;8.23;7.53;;;26.90;87.60;;;27.56;38.10;98595.13;5267769;28;20206;-60
2021/09/06 10:17:03;;;;;;;8.73;7.90;;;26.80;85.80;;;27.57;37.37;98585.50;5265970;28;20188;-62
2021/09/06 10:19:42;;;;;;;9.27;8.45;;;26.80;85.30;;;27.62;37.38;98584.63;5260408;28;20304;-61
2021/09/06 10:22:22;;;;;;;8.98;8.18;;;27.00;84.90;;;27.57;38.37;98581.13;5259185;28;20195;-61
2021/09/06 10:24:58;;;;;;;8.98;8.18;;;26.90;85.80;;;27.55;38.01;98574.97;5267519;28;20502;-62
2021/09/06 10:27:36;;;;;;;9.40;8.50;;;26.80;85.20;;;27.62;38.02;98578.50;5256109;28;20286;-61
2021/09/06 10:30:14;;;;;;;9.13;8.32;;;26.80;85.20;;;27.75;37.78;98572.34;5259497;28;20697;-61
2021/09/06 10:32:50;;;;;;;8.85;8.15;;;27.00;85.30;;;27.56;37.60;98568.00;5256301;28;20226;-62
2021/09/06 10:35:27;;;;;;;8.95;8.10;;;26.90;84.40;;;27.49;38.62;98558.34;5255792;28;20195;-62
2021/09/06 10:38:04;;;;;;;9.07;8.27;;;26.80;86.40;;;27.61;38.35;98572.38;5251021;28;20214;-62
2021/09/06 10:40:39;;;;;;;8.50;7.80;;;26.90;85.80;;;27.74;38.38;98570.63;5264609;28;20214;-63
2021/09/06 10:43:16;;;;;;;8.50;7.80;;;27.00;85.90;;;27.49;38.06;98567.09;5260469;28;20195;-64